GTRO2: Cimmarron R.,Guthrie, OK

                                SHEF ID:       GTRO2     Cimarron River near Guthrie, OK
STATION TYPE:
Regulating: Stage = 18.00, Flow = 38008

PRECIP STAGE RIV-FLOW BAT-LOAD
in ft cfs volt
Ccp-Rev Ccp-Rev Ccp-Rev Ccp-Rev
(America/Chicago)
04/14 00:00 ---- 5.89 345 12.65
04/14 01:00 ---- 5.88 340 12.65
04/14 02:00 ---- 5.86 329 12.57
04/14 03:00 ---- 5.89 345 12.57
04/14 04:00 ---- 5.88 340 12.57
04/14 05:00 ---- 5.86 329 12.57
04/14 06:00 ---- 5.89 345 12.57
04/14 07:00 ---- 5.88 340 12.49
04/14 08:00 ---- 5.90 350 13.13
04/14 09:00 ---- 5.87 335 13.44
04/14 10:00 ---- 5.88 340 13.60
04/14 11:00 ---- 5.87 335 13.53
04/14 12:00 ---- 5.88 340 13.29
04/14 13:00 ---- 5.89 345 13.21
04/14 14:00 ---- 5.88 340 13.13
04/14 15:00 ---- 5.88 340 12.97
04/14 16:00 ---- 5.89 345 12.89
04/14 17:00 ---- 5.87 335 12.97
04/14 18:00 ---- 5.87 335 12.97
04/14 19:00 ---- 5.86 329 12.97
04/14 20:00 ---- 5.87 335 12.73
04/14 21:00 ---- 5.87 335 12.73
04/14 22:00 ---- ---- ---- ----
04/14 23:00 ---- ---- ---- ----
Data processed at Mon 15Apr2024 02:49 GMT

Parsing this webpage?

Checkout our new Data API! CWMSDataAPI (CDA)

Timeseries IDs (TSIDs)

TSIDs used from left to right in the data table
GUTH.Precip-Inc.Total.1Hour.1Hour.Ccp-Rev
GUTH.Stage.Inst.1Hour.0.Ccp-Rev
GUTH.Flow.Inst.1Hour.0.Ccp-Rev
GUTH.Volt-Battery Load.Inst.1Hour.0.Ccp-Rev

                            

All information presented herein is the property of the government of the United States of America and may be revised or deleted at any time without prior notice. Dissemination of this information without the expressed written consent of the Public Affairs Office, Tulsa District U.S. Army Corps of Engineers is strictly prohibited. These data are gathered electronically and, as presented, have NOT undergone any form of quality control. These data are NOT guaranteed to be valid or correct.